Eagle Boston — 9VHI — position and weather

sailwx.info

Track history (hours):
 
Tides and Currents Weather Stations Pressure Air Temp Water Temp Dewpoint Dewpoint Depression Visibility Wind Speed Wind Dir Waves Ship Positions

Eagle Boston

Last reported at 2014-Jul-19 05:30 UTC. Time now 2014-Jul-25 13:38 UTC.
Position N 29°46' W 090°01'.

Length 254 m; draft 8 m.

Type: Tanker. MMSI: 564004000.

Date/timePositionNaut miles runAvg speedWind from/ knotsBaromVisibWave heightAir tempDewpointWater temp
2014-Jul-19 05:30N 29°46' W 090°01'10 5.0
2014-Jul-19 03:33N 29°55' W 090°08'9 9.1
2014-Jul-19 02:34N 29°58' W 090°17'6 5.4
2014-Jul-19 01:31N 29°59' W 090°24'23 0.6
2014-Jul-17 11:26N 29°47' W 090°01'0 0.0
2014-Jul-17 10:05N 29°47' W 090°01'0 0.0
2014-Jul-17 07:29N 29°47' W 090°01'0 0.0
2014-Jul-17 06:08N 29°47' W 090°01'0 0.0
2014-Jul-16 05:29N 29°47' W 090°01'  
2014-Jul-12 14:19N 29°47' W 090°01'0 0.0
2014-Jul-12 12:28N 29°47' W 090°01'0 0.0
2014-Jul-12 11:31N 29°47' W 090°01'0 0.0
2014-Jul-12 10:31N 29°47' W 090°01'0 0.0
2014-Jul-12 09:30N 29°47' W 090°01'0 0.0
2014-Jul-12 08:30N 29°47' W 090°01'0 0.0
2014-Jul-12 07:33N 29°47' W 090°01'0 0.0
2014-Jul-12 06:06N 29°47' W 090°01'0 0.0
2014-Jul-12 05:33N 29°47' W 090°01'0 0.0
2014-Jul-12 04:33N 29°47' W 090°01'0 0.0
2014-Jul-10 04:21N 29°47' W 090°01'0 0.0
2014-Jul-10 02:30N 29°47' W 090°01'0 0.0
2014-Jul-10 01:33N 29°47' W 090°01'  
Track history (hours):
 
Tides and Currents Weather Stations Pressure Air Temp Water Temp Dewpoint Dewpoint Depression Visibility Wind Speed Wind Dir Waves Ship Positions

Eagle Boston

Last reported at 2014-Jul-19 05:30 UTC. Time now 2014-Jul-25 13:38 UTC.
Position N 29°46' W 090°01'.

Length 254 m; draft 8 m.

Type: Tanker. MMSI: 564004000.

Date/timePositionNaut miles runAvg speedWind from/ knotsBaromVisibWave heightAir tempDewpointWater temp
2014-Jul-19 05:30N 29°46' W 090°01'10 5.0
2014-Jul-19 03:33N 29°55' W 090°08'9 9.1
2014-Jul-19 02:34N 29°58' W 090°17'6 5.4
2014-Jul-19 01:31N 29°59' W 090°24'23 0.6
2014-Jul-17 11:26N 29°47' W 090°01'0 0.0
2014-Jul-17 10:05N 29°47' W 090°01'0 0.0
2014-Jul-17 07:29N 29°47' W 090°01'0 0.0
2014-Jul-17 06:08N 29°47' W 090°01'0 0.0
2014-Jul-16 05:29N 29°47' W 090°01'  
2014-Jul-12 14:19N 29°47' W 090°01'0 0.0
2014-Jul-12 12:28N 29°47' W 090°01'0 0.0
2014-Jul-12 11:31N 29°47' W 090°01'0 0.0
2014-Jul-12 10:31N 29°47' W 090°01'0 0.0
2014-Jul-12 09:30N 29°47' W 090°01'0 0.0
2014-Jul-12 08:30N 29°47' W 090°01'0 0.0
2014-Jul-12 07:33N 29°47' W 090°01'0 0.0
2014-Jul-12 06:06N 29°47' W 090°01'0 0.0
2014-Jul-12 05:33N 29°47' W 090°01'0 0.0
2014-Jul-12 04:33N 29°47' W 090°01'0 0.0
2014-Jul-10 04:21N 29°47' W 090°01'0 0.0
2014-Jul-10 02:30N 29°47' W 090°01'0 0.0
2014-Jul-10 01:33N 29°47' W 090°01'  

Dump ship's entire track history